Wilson Lista — 8PRW — position and weather

sailwx.info

Track history (hours):
 
Tides and Currents Weather Stations Pressure Air Temp Water Temp Dewpoint Dewpoint Depression Visibility Wind Speed Wind Dir Waves Ship Positions

Wilson Lista

Last reported at 2016-May-25 12:34 UTC. Time now 2016-May-25 13:07 UTC.
Position N 51°54' E 004°28'.

Length 88 m; draft 5.5 m.

Type: Cargo ship. MMSI: 314188000.

Date/timePositionNaut miles runAvg speedWind from/ knotsBaromVisibWave heightAir tempDewpointWater temp
2016-May-25 12:34N 51°54' E 004°28'0 0.0
2016-May-25 11:29N 51°54' E 004°28'0 0.0
2016-May-25 10:32N 51°54' E 004°28'0 0.0
2016-May-25 09:31N 51°54' E 004°28'0 0.0
2016-May-25 08:31N 51°54' E 004°28'0 0.0
2016-May-25 07:33N 51°54' E 004°28'0 0.0
2016-May-25 06:33N 51°54' E 004°28'0 0.0
2016-May-25 05:32N 51°54' E 004°28'0 0.0
2016-May-25 04:32N 51°54' E 004°28'0 0.0
2016-May-25 03:31N 51°54' E 004°28'0 0.0
2016-May-25 02:31N 51°54' E 004°28'0 0.0
2016-May-25 01:27N 51°54' E 004°28'0 0.0
2016-May-25 00:33N 51°54' E 004°28'0 0.0
2016-May-24 23:30N 51°54' E 004°28'0 0.0
2016-May-24 22:32N 51°54' E 004°28'0 0.0
2016-May-24 21:32N 51°54' E 004°28'0 0.0
2016-May-24 20:31N 51°54' E 004°28'0 0.0
2016-May-24 19:31N 51°54' E 004°28'0 0.0
2016-May-24 18:34N 51°54' E 004°28'0 0.0
2016-May-24 17:33N 51°54' E 004°28'0 0.0
2016-May-24 16:30N 51°54' E 004°28'0 0.0
2016-May-24 15:32N 51°54' E 004°28'0 0.0
2016-May-24 14:32N 51°54' E 004°28'0 0.0
2016-May-24 13:32N 51°54' E 004°28'0 0.0
2016-May-24 12:33N 51°54' E 004°28'2 1.9
2016-May-24 11:31N 51°54' E 004°25'0 0.0
2016-May-24 10:33N 51°54' E 004°25'0 0.0
2016-May-24 09:30N 51°54' E 004°25'0 0.0
2016-May-24 08:32N 51°54' E 004°25'0 0.0
2016-May-24 07:32N 51°54' E 004°25'0 0.0
2016-May-24 06:28N 51°54' E 004°25'0 0.0
2016-May-24 05:28N 51°54' E 004°25'0 0.0
2016-May-24 04:31N 51°54' E 004°25'0 0.0
2016-May-24 03:33N 51°54' E 004°25'0 0.0
2016-May-24 02:33N 51°54' E 004°25'0 0.0
2016-May-24 01:32N 51°54' E 004°25'0 0.0
2016-May-24 00:32N 51°54' E 004°25'0 0.0
2016-May-23 23:31N 51°54' E 004°25'0 0.0
2016-May-23 22:31N 51°54' E 004°25'0 0.0
2016-May-23 21:28N 51°54' E 004°25'0 0.0
2016-May-23 20:27N 51°54' E 004°25'0 0.0
2016-May-23 19:33N 51°54' E 004°25'0 0.0
2016-May-23 18:32N 51°54' E 004°25'0 0.0
2016-May-23 17:29N 51°54' E 004°25'0 0.0
2016-May-23 16:31N 51°54' E 004°25'0 0.0
2016-May-23 15:32N 51°54' E 004°25'0 0.0
2016-May-23 14:33N 51°54' E 004°25'0 0.0
2016-May-23 13:32N 51°54' E 004°25'0 0.0
2016-May-23 12:32N 51°54' E 004°25'0 0.0
2016-May-23 11:28N 51°54' E 004°25'0 0.0
2016-May-23 10:28N 51°54' E 004°25'0 0.0
2016-May-23 09:31N 51°54' E 004°25'0 0.0
2016-May-23 08:33N 51°54' E 004°25'0 0.0
2016-May-23 07:33N 51°54' E 004°25'0 0.0
2016-May-23 06:29N 51°54' E 004°25'0 0.0
2016-May-23 05:26N 51°54' E 004°25'0 0.0
2016-May-23 04:16N 51°54' E 004°25'0 0.0
2016-May-23 03:31N 51°54' E 004°25'0 0.0
2016-May-23 02:31N 51°54' E 004°25'0 0.0
2016-May-23 01:33N 51°54' E 004°25'0 0.0
2016-May-23 00:33N 51°54' E 004°25'0 0.0
2016-May-22 23:29N 51°54' E 004°25'0 0.0
2016-May-22 22:32N 51°54' E 004°25'0 0.0
2016-May-22 21:32N 51°54' E 004°25'0 0.0
2016-May-22 20:31N 51°54' E 004°25'0 0.0
2016-May-22 19:31N 51°54' E 004°25'0 0.0
2016-May-22 18:33N 51°54' E 004°25'0 0.0
2016-May-22 17:33N 51°54' E 004°25'0 0.0
2016-May-22 16:32N 51°54' E 004°25'0 0.0
2016-May-22 15:32N 51°54' E 004°25'0 0.0
2016-May-22 14:28N 51°54' E 004°25'0 0.0
2016-May-22 13:32N 51°54' E 004°25'2 1.8
2016-May-22 12:33N 51°54' E 004°22'8 8.1
2016-May-22 11:33N 51°57' E 004°10'8 7.9
2016-May-22 10:33N 52°00' E 003°58'10 8.5
2016-May-22 09:23N 52°07' E 003°47'115 9.4
2016-May-21 21:14N 53°55' E 004°51'8 9.0
2016-May-21 20:23N 54°02' E 004°55'311 9.4
2016-May-20 11:06N 59°13' E 004°43'96 3.4
2016-May-19 07:10N 60°49' E 005°01'0 0.0
2016-May-19 06:21N 60°49' E 005°01'0 0.0
2016-May-19 05:34N 60°49' E 005°01'0 0.2
2016-May-19 04:34N 60°49' E 005°01'8 7.7
2016-May-19 03:33N 60°50' E 004°45'7 6.4
2016-May-19 02:32N 60°44' E 004°39'55 6.1
2016-May-18 17:33N 59°59' E 005°44'  
Track history (hours):
 
Tides and Currents Weather Stations Pressure Air Temp Water Temp Dewpoint Dewpoint Depression Visibility Wind Speed Wind Dir Waves Ship Positions

Wilson Lista

Last reported at 2016-May-25 12:34 UTC. Time now 2016-May-25 13:07 UTC.
Position N 51°54' E 004°28'.

Length 88 m; draft 5.5 m.

Type: Cargo ship. MMSI: 314188000.

Date/timePositionNaut miles runAvg speedWind from/ knotsBaromVisibWave heightAir tempDewpointWater temp
2016-May-25 12:34N 51°54' E 004°28'0 0.0
2016-May-25 11:29N 51°54' E 004°28'0 0.0
2016-May-25 10:32N 51°54' E 004°28'0 0.0
2016-May-25 09:31N 51°54' E 004°28'0 0.0
2016-May-25 08:31N 51°54' E 004°28'0 0.0
2016-May-25 07:33N 51°54' E 004°28'0 0.0
2016-May-25 06:33N 51°54' E 004°28'0 0.0
2016-May-25 05:32N 51°54' E 004°28'0 0.0
2016-May-25 04:32N 51°54' E 004°28'0 0.0
2016-May-25 03:31N 51°54' E 004°28'0 0.0
2016-May-25 02:31N 51°54' E 004°28'0 0.0
2016-May-25 01:27N 51°54' E 004°28'0 0.0
2016-May-25 00:33N 51°54' E 004°28'0 0.0
2016-May-24 23:30N 51°54' E 004°28'0 0.0
2016-May-24 22:32N 51°54' E 004°28'0 0.0
2016-May-24 21:32N 51°54' E 004°28'0 0.0
2016-May-24 20:31N 51°54' E 004°28'0 0.0
2016-May-24 19:31N 51°54' E 004°28'0 0.0
2016-May-24 18:34N 51°54' E 004°28'0 0.0
2016-May-24 17:33N 51°54' E 004°28'0 0.0
2016-May-24 16:30N 51°54' E 004°28'0 0.0
2016-May-24 15:32N 51°54' E 004°28'0 0.0
2016-May-24 14:32N 51°54' E 004°28'0 0.0
2016-May-24 13:32N 51°54' E 004°28'0 0.0
2016-May-24 12:33N 51°54' E 004°28'2 1.9
2016-May-24 11:31N 51°54' E 004°25'0 0.0
2016-May-24 10:33N 51°54' E 004°25'0 0.0
2016-May-24 09:30N 51°54' E 004°25'0 0.0
2016-May-24 08:32N 51°54' E 004°25'0 0.0
2016-May-24 07:32N 51°54' E 004°25'0 0.0
2016-May-24 06:28N 51°54' E 004°25'0 0.0
2016-May-24 05:28N 51°54' E 004°25'0 0.0
2016-May-24 04:31N 51°54' E 004°25'0 0.0
2016-May-24 03:33N 51°54' E 004°25'0 0.0
2016-May-24 02:33N 51°54' E 004°25'0 0.0
2016-May-24 01:32N 51°54' E 004°25'0 0.0
2016-May-24 00:32N 51°54' E 004°25'0 0.0
2016-May-23 23:31N 51°54' E 004°25'0 0.0
2016-May-23 22:31N 51°54' E 004°25'0 0.0
2016-May-23 21:28N 51°54' E 004°25'0 0.0
2016-May-23 20:27N 51°54' E 004°25'0 0.0
2016-May-23 19:33N 51°54' E 004°25'0 0.0
2016-May-23 18:32N 51°54' E 004°25'0 0.0
2016-May-23 17:29N 51°54' E 004°25'0 0.0
2016-May-23 16:31N 51°54' E 004°25'0 0.0
2016-May-23 15:32N 51°54' E 004°25'0 0.0
2016-May-23 14:33N 51°54' E 004°25'0 0.0
2016-May-23 13:32N 51°54' E 004°25'0 0.0
2016-May-23 12:32N 51°54' E 004°25'0 0.0
2016-May-23 11:28N 51°54' E 004°25'0 0.0
2016-May-23 10:28N 51°54' E 004°25'0 0.0
2016-May-23 09:31N 51°54' E 004°25'0 0.0
2016-May-23 08:33N 51°54' E 004°25'0 0.0
2016-May-23 07:33N 51°54' E 004°25'0 0.0
2016-May-23 06:29N 51°54' E 004°25'0 0.0
2016-May-23 05:26N 51°54' E 004°25'0 0.0
2016-May-23 04:16N 51°54' E 004°25'0 0.0
2016-May-23 03:31N 51°54' E 004°25'0 0.0
2016-May-23 02:31N 51°54' E 004°25'0 0.0
2016-May-23 01:33N 51°54' E 004°25'0 0.0
2016-May-23 00:33N 51°54' E 004°25'0 0.0
2016-May-22 23:29N 51°54' E 004°25'0 0.0
2016-May-22 22:32N 51°54' E 004°25'0 0.0
2016-May-22 21:32N 51°54' E 004°25'0 0.0
2016-May-22 20:31N 51°54' E 004°25'0 0.0
2016-May-22 19:31N 51°54' E 004°25'0 0.0
2016-May-22 18:33N 51°54' E 004°25'0 0.0
2016-May-22 17:33N 51°54' E 004°25'0 0.0
2016-May-22 16:32N 51°54' E 004°25'0 0.0
2016-May-22 15:32N 51°54' E 004°25'0 0.0
2016-May-22 14:28N 51°54' E 004°25'0 0.0
2016-May-22 13:32N 51°54' E 004°25'2 1.8
2016-May-22 12:33N 51°54' E 004°22'8 8.1
2016-May-22 11:33N 51°57' E 004°10'8 7.9
2016-May-22 10:33N 52°00' E 003°58'10 8.5
2016-May-22 09:23N 52°07' E 003°47'115 9.4
2016-May-21 21:14N 53°55' E 004°51'8 9.0
2016-May-21 20:23N 54°02' E 004°55'311 9.4
2016-May-20 11:06N 59°13' E 004°43'96 3.4
2016-May-19 07:10N 60°49' E 005°01'0 0.0
2016-May-19 06:21N 60°49' E 005°01'0 0.0
2016-May-19 05:34N 60°49' E 005°01'0 0.2
2016-May-19 04:34N 60°49' E 005°01'8 7.7
2016-May-19 03:33N 60°50' E 004°45'7 6.4
2016-May-19 02:32N 60°44' E 004°39'55 6.1
2016-May-18 17:33N 59°59' E 005°44'  

Dump ship's entire track history